Ahousat, Canada
Current Conditions -  °F | °C
As of 5:00 PM on Wednesday 26 Nov 2014 (Local Time) from CYAZ Reporting Station
Light Rain Light Rain  
Wind Chill: 54°   Ceiling: 600
Heat Index: 54°   Visibility: 1mi
Dew Point: 52°   Wind: 18mph
Humidity: 94%   Direction: 130°SE
Pressure: 29.8"   Gusts: 31mph
Location:  49.28°N, 126.08°W
Report Text: CYAZ 270100Z 13016G27KT 1SM -RA BR BKN006 OVC010 12/11 A2980 RMK SF5CF3 LAST OBS/NEXT 271500UTC PRESFR SLP090
Loading
Personal Weather Stations






























Interactive Weather Map New forecast layout! Learn more

10-Day Weather Forecast

Advertisements
Track Severe Weather on mobile